createdAt,value
2018-07-22T00:00:29.178Z,93.33
2018-07-22T00:01:41.371Z,93.33
2018-07-22T00:02:42.507Z,93.72
2018-07-22T00:03:47.835Z,93.72
2018-07-22T00:04:57.160Z,93.82
2018-07-22T00:05:57.679Z,93.62
2018-07-22T00:07:01.782Z,93.15
2018-07-22T00:08:07.215Z,93.68
2018-07-22T00:09:15.416Z,93.53
2018-07-22T00:10:26.895Z,93.38
2018-07-22T00:11:31.097Z,93.62
2018-07-22T00:12:31.719Z,93.62
2018-07-22T00:13:39.508Z,92.91
2018-07-22T00:14:51.217Z,93.10
2018-07-22T00:15:45.933Z,93.53
2018-07-22T00:16:59.188Z,93.48
2018-07-22T00:18:00.468Z,93.91
2018-07-22T00:19:02.175Z,93.38
2018-07-22T00:21:14.686Z,93.29
2018-07-22T00:22:24.003Z,93.68
2018-07-22T00:23:27.287Z,93.58
2018-07-22T00:24:32.822Z,93.38
2018-07-22T00:25:40.518Z,93.48
2018-07-22T00:27:50.047Z,93.58
2018-07-22T00:29:00.907Z,93.19
2018-07-22T00:31:11.469Z,93.77
2018-07-22T00:32:13.217Z,93.58
2018-07-22T00:33:18.655Z,93.48
2018-07-22T00:34:27.567Z,93.58
2018-07-22T00:35:36.789Z,93.48
2018-07-22T00:36:35.772Z,93.68
2018-07-22T00:38:46.947Z,93.87
2018-07-22T00:40:57.098Z,93.58
2018-07-22T00:42:03.052Z,93.77
2018-07-22T00:43:11.037Z,93.58
2018-07-22T00:44:14.536Z,93.48
2018-07-22T00:45:16.274Z,93.29
2018-07-22T00:47:26.631Z,93.68
2018-07-22T00:48:33.294Z,93.48
2018-07-22T00:49:41.669Z,93.77
2018-07-22T00:50:38.332Z,94.25
2018-07-22T00:51:49.708Z,94.35
2018-07-22T00:54:05.070Z,94.45
2018-07-22T00:57:19.020Z,94.06
2018-07-22T00:58:31.928Z,94.15
2018-07-22T00:59:32.659Z,94.06
2018-07-22T01:00:31.965Z,94.21
2018-07-22T01:01:33.483Z,94.21
2018-07-22T01:03:56.334Z,94.15
2018-07-22T01:04:55.668Z,94.30
2018-07-22T01:06:02.188Z,94.21
2018-07-22T01:08:15.243Z,94.21
2018-07-22T01:09:21.251Z,94.30
2018-07-22T01:10:26.274Z,93.91
2018-07-22T01:11:28.851Z,94.30
2018-07-22T01:12:32.127Z,94.01
2018-07-22T01:13:41.042Z,94.30
2018-07-22T01:14:47.705Z,94.49
2018-07-22T01:15:57.028Z,94.40
2018-07-22T01:16:57.854Z,93.63
2018-07-22T01:18:04.838Z,93.63
2018-07-22T01:19:03.706Z,93.91
2018-07-22T01:20:14.976Z,94.21
2018-07-22T01:21:26.963Z,93.63
2018-07-22T01:22:27.483Z,94.40
2018-07-22T01:23:34.864Z,94.30
2018-07-22T01:24:37.690Z,94.30
2018-07-22T01:25:54.026Z,94.21
2018-07-22T01:26:45.020Z,94.21
2018-07-22T01:27:57.418Z,94.40
2018-07-22T01:30:05.319Z,93.73
2018-07-22T01:31:14.231Z,94.49
2018-07-22T01:32:25.401Z,94.30
2018-07-22T01:33:27.866Z,94.11
2018-07-22T01:34:19.673Z,94.21
2018-07-22T01:35:34.738Z,94.01
2018-07-22T01:36:44.371Z,94.40
2018-07-22T01:37:44.676Z,94.01
2018-07-22T01:38:57.389Z,93.91
2018-07-22T01:39:56.074Z,94.21
2018-07-22T01:41:02.216Z,93.91
2018-07-22T01:42:06.625Z,94.01
2018-07-22T01:43:09.209Z,94.30
2018-07-22T01:44:20.361Z,94.59
2018-07-22T01:45:17.400Z,94.49
2018-07-22T01:46:25.904Z,94.30
2018-07-22T01:48:36.262Z,95.07
2018-07-22T01:49:48.350Z,94.40
2018-07-22T01:50:47.537Z,94.59
2018-07-22T01:52:05.876Z,94.40
2018-07-22T01:52:56.259Z,94.40
2018-07-22T01:54:10.187Z,94.59
2018-07-22T01:56:23.269Z,94.01
2018-07-22T01:57:24.653Z,94.30
2018-07-22T01:58:37.251Z,94.49
2018-07-22T01:59:33.877Z,94.40
2018-07-22T02:00:34.244Z,94.40
2018-07-22T02:01:46.088Z,94.30
2018-07-22T02:02:47.619Z,94.59
2018-07-22T02:03:58.890Z,94.11
2018-07-22T02:05:02.483Z,94.11
2018-07-22T02:07:18.573Z,94.11
2018-07-22T02:08:16.542Z,94.21
2018-07-22T02:09:16.846Z,94.49
2018-07-22T02:10:36.922Z,94.40
2018-07-22T02:11:28.942Z,94.40
2018-07-22T02:12:45.127Z,95.17
2018-07-22T02:13:49.802Z,94.88
2018-07-22T02:14:54.971Z,94.49
2018-07-22T02:15:52.930Z,94.21
2018-07-22T02:17:01.232Z,94.11
2018-07-22T02:18:11.990Z,94.21
2018-07-22T02:19:07.687Z,94.40
2018-07-22T02:20:15.281Z,93.96
2018-07-22T02:21:26.653Z,94.49
2018-07-22T02:22:32.087Z,94.11
2018-07-22T02:24:38.757Z,94.01
2018-07-22T02:25:51.741Z,94.16
2018-07-22T02:26:58.124Z,94.11
2018-07-22T02:27:58.234Z,94.40
2018-07-22T02:29:04.692Z,94.21
2018-07-22T02:30:05.416Z,94.11
2018-07-22T02:31:14.692Z,94.06
2018-07-22T02:32:21.407Z,94.45
2018-07-22T02:35:31.972Z,94.16
2018-07-22T02:36:52.150Z,94.16
2018-07-22T02:38:56.260Z,93.82
2018-07-22T02:40:06.694Z,94.06
2018-07-22T02:41:09.588Z,94.21
2018-07-22T02:42:01.606Z,94.06
2018-07-22T02:43:15.949Z,93.87
2018-07-22T02:44:15.696Z,94.16
2018-07-22T02:45:24.461Z,93.91
2018-07-22T02:47:34.305Z,94.06
2018-07-22T02:49:44.559Z,93.96
2018-07-22T02:50:52.600Z,94.06
2018-07-22T02:52:07.613Z,94.06
2018-07-22T02:52:54.324Z,94.26
2018-07-22T02:54:10.217Z,94.06
2018-07-22T02:55:09.272Z,94.26
2018-07-22T02:56:19.109Z,94.16
2018-07-22T02:57:23.804Z,94.45
2018-07-22T02:58:35.611Z,93.96
2018-07-22T02:59:33.465Z,94.06
2018-07-22T03:00:42.922Z,94.45
2018-07-22T03:01:51.810Z,94.16
2018-07-22T03:02:52.942Z,94.26
2018-07-22T03:03:57.146Z,94.16
2018-07-22T03:05:09.655Z,93.87
2018-07-22T03:06:04.123Z,94.16
2018-07-22T03:07:09.557Z,94.45
2018-07-22T03:08:12.639Z,94.54
2018-07-22T03:09:28.719Z,94.54
2018-07-22T03:10:43.325Z,94.45
2018-07-22T03:11:37.442Z,94.45
2018-07-22T03:12:53.011Z,94.26
2018-07-22T03:13:52.613Z,94.45
2018-07-22T03:14:54.968Z,94.35
2018-07-22T03:17:05.120Z,94.35
2018-07-22T03:18:10.144Z,93.96
2018-07-22T03:19:18.958Z,94.26
2018-07-22T03:20:23.162Z,93.96
2018-07-22T03:22:34.031Z,93.96
2018-07-22T03:23:33.220Z,93.96
2018-07-22T03:24:43.876Z,93.39
2018-07-22T03:25:55.263Z,93.39
2018-07-22T03:26:58.021Z,93.68
2018-07-22T03:28:09.095Z,93.39
2018-07-22T03:29:10.326Z,94.26
2018-07-22T03:30:12.889Z,94.06
2018-07-22T03:31:16.322Z,94.26
2018-07-22T03:32:25.316Z,93.77
2018-07-22T03:33:31.649Z,94.64
2018-07-22T03:34:34.010Z,94.26
2018-07-22T03:35:46.511Z,94.45
2018-07-22T03:36:56.248Z,94.16
2018-07-22T03:37:57.380Z,94.35
2018-07-22T03:38:52.061Z,94.16
2018-07-22T03:39:59.337Z,94.06
2018-07-22T03:41:13.476Z,93.87
2018-07-22T03:42:12.357Z,94.16
2018-07-22T03:43:19.940Z,94.54
2018-07-22T03:44:35.718Z,94.64
2018-07-22T03:45:32.214Z,94.45
2018-07-22T03:46:27.311Z,94.54
2018-07-22T03:48:49.568Z,94.64
2018-07-22T03:50:53.689Z,94.35
2018-07-22T03:51:58.910Z,94.54
2018-07-22T03:53:13.662Z,95.03
2018-07-22T03:54:10.217Z,94.93
2018-07-22T03:55:14.697Z,94.73
2018-07-22T03:56:35.490Z,94.93
2018-07-22T03:57:23.828Z,94.93
2018-07-22T03:58:43.901Z,94.64
2018-07-22T03:59:45.452Z,94.54
2018-07-22T04:01:57.335Z,93.77
2018-07-22T04:04:01.139Z,94.35
2018-07-22T04:05:03.091Z,93.58
2018-07-22T04:06:14.772Z,93.10
2018-07-22T04:07:29.335Z,93.77
2018-07-22T04:08:31.724Z,93.39
2018-07-22T04:09:29.970Z,93.58
2018-07-22T04:10:34.767Z,94.26
2018-07-22T04:11:46.141Z,94.16
2018-07-22T04:12:45.941Z,93.77
2018-07-22T04:13:57.729Z,94.16
2018-07-22T04:16:07.727Z,94.54
2018-07-22T04:17:07.372Z,94.64
2018-07-22T04:20:25.825Z,94.54
2018-07-22T04:21:26.607Z,94.54
2018-07-22T04:22:32.288Z,94.54
2018-07-22T04:23:50.728Z,94.35
2018-07-22T04:25:51.738Z,95.03
2018-07-22T04:26:52.898Z,94.83
2018-07-22T04:28:23.114Z,94.26
2018-07-22T04:29:25.476Z,94.54
2018-07-22T04:31:23.550Z,94.26
2018-07-22T04:32:36.863Z,94.93
2018-07-22T04:33:31.441Z,94.93
2018-07-22T04:34:41.792Z,95.03
2018-07-22T04:35:49.172Z,95.03
2018-07-22T04:36:53.069Z,95.03
2018-07-22T04:37:52.665Z,95.03
2018-07-22T04:39:06.733Z,94.73
2018-07-22T04:40:04.557Z,95.12
2018-07-22T04:41:10.605Z,94.73
2018-07-22T04:43:25.161Z,94.83
2018-07-22T04:44:28.353Z,94.83
2018-07-22T04:45:32.861Z,94.64
2018-07-22T04:46:36.751Z,95.03
2018-07-22T04:47:48.228Z,94.83
2018-07-22T04:48:42.098Z,94.93
2018-07-22T04:51:06.357Z,94.83
2018-07-22T04:52:06.736Z,94.73
2018-07-22T04:53:02.600Z,94.93
2018-07-22T04:54:14.892Z,95.03
2018-07-22T04:55:23.296Z,95.21
2018-07-22T04:56:26.784Z,94.93
2018-07-22T04:58:38.741Z,94.98
2018-07-22T05:02:02.658Z,95.45
2018-07-22T05:02:59.739Z,95.36
2018-07-22T05:04:17.725Z,95.36
2018-07-22T05:05:10.666Z,95.36
2018-07-22T05:06:21.630Z,95.65
2018-07-22T05:07:17.336Z,95.84
2018-07-22T05:08:38.540Z,95.65
2018-07-22T05:09:41.721Z,95.75
2018-07-22T05:10:35.174Z,95.55
2018-07-22T05:11:48.605Z,95.75
2018-07-22T05:12:49.216Z,95.45
2018-07-22T05:13:58.235Z,95.45
2018-07-22T05:15:02.743Z,95.75
2018-07-22T05:17:14.435Z,95.94
2018-07-22T05:19:18.646Z,95.75
2018-07-22T05:20:43.872Z,96.03
2018-07-22T05:21:34.326Z,95.65
2018-07-22T05:22:38.746Z,95.65
2018-07-22T05:23:43.353Z,95.55
2018-07-22T05:24:51.087Z,95.55
2018-07-22T05:25:51.148Z,95.45
2018-07-22T05:27:04.979Z,95.84
2018-07-22T05:28:07.443Z,95.55
2018-07-22T05:29:09.751Z,96.13
2018-07-22T05:32:34.711Z,95.70
2018-07-22T05:33:35.227Z,95.70
2018-07-22T05:34:40.756Z,95.50
2018-07-22T05:35:49.578Z,95.79
2018-07-22T05:36:53.751Z,95.89
2018-07-22T05:38:05.380Z,95.89
2018-07-22T05:39:01.580Z,96.08
2018-07-22T05:40:10.391Z,95.70
2018-07-22T05:41:17.668Z,95.60
2018-07-22T05:42:25.152Z,95.79
2018-07-22T05:43:29.255Z,95.21
2018-07-22T05:45:32.595Z,95.70
2018-07-22T05:46:40.648Z,95.50
2018-07-22T05:47:43.514Z,95.40
2018-07-22T05:48:53.658Z,95.79
2018-07-22T05:49:54.485Z,95.60
2018-07-22T05:50:56.138Z,95.02
2018-07-22T05:52:05.864Z,94.15
2018-07-22T05:53:12.630Z,94.54
2018-07-22T05:54:23.081Z,94.35
2018-07-22T05:57:39.487Z,95.26
2018-07-22T05:58:42.055Z,95.07
2018-07-22T06:00:00.799Z,94.87
2018-07-22T06:00:56.403Z,95.36
2018-07-22T06:03:03.224Z,94.97
2018-07-22T06:04:11.271Z,95.26
2018-07-22T06:05:13.225Z,95.55
2018-07-22T06:07:37.100Z,95.07
2018-07-22T06:08:34.031Z,94.68
2018-07-22T06:09:36.760Z,95.07
2018-07-22T06:10:41.625Z,94.10
2018-07-22T06:11:51.295Z,93.91
2018-07-22T06:13:02.935Z,94.01
2018-07-22T06:14:01.202Z,94.10
2018-07-22T06:15:10.762Z,94.20
2018-07-22T06:16:11.967Z,94.20
2018-07-22T06:17:13.714Z,93.53
2018-07-22T06:18:28.065Z,93.82
2018-07-22T06:21:40.365Z,94.59
2018-07-22T06:22:32.794Z,94.49
2018-07-22T06:23:54.818Z,94.40
2018-07-22T06:24:48.988Z,94.78
2018-07-22T06:26:00.765Z,93.62
2018-07-22T06:27:03.764Z,93.33
2018-07-22T06:28:00.886Z,92.80
2018-07-22T06:29:25.982Z,93.62
2018-07-22T06:30:22.819Z,93.48
2018-07-22T06:32:28.706Z,93.67
2018-07-22T06:34:45.268Z,93.67
2018-07-22T06:35:51.733Z,93.67
2018-07-22T06:36:54.412Z,93.29
2018-07-22T06:37:57.270Z,93.57
2018-07-22T06:39:08.345Z,93.29
2018-07-22T06:40:11.208Z,93.00
2018-07-22T06:41:18.998Z,93.00
2018-07-22T06:42:20.642Z,92.71
2018-07-22T06:43:30.890Z,91.36
2018-07-22T06:45:32.646Z,91.27
2018-07-22T06:47:45.913Z,91.94
2018-07-22T06:50:04.416Z,91.46
2018-07-22T06:52:12.930Z,91.07
2018-07-22T06:55:28.034Z,90.59
2018-07-22T06:56:38.454Z,90.20
2018-07-22T06:57:39.697Z,89.92
2018-07-22T06:58:54.225Z,89.53
2018-07-22T06:59:57.829Z,89.72
2018-07-22T07:00:54.374Z,89.82
2018-07-22T07:02:01.937Z,91.27
2018-07-22T07:03:16.689Z,90.44
2018-07-22T07:04:10.759Z,90.16
2018-07-22T07:05:33.424Z,90.16
2018-07-22T07:06:18.758Z,91.12
2018-07-22T07:07:34.229Z,90.34
2018-07-22T07:08:32.917Z,89.58
2018-07-22T07:09:40.794Z,88.23
2018-07-22T07:10:39.779Z,89.39
2018-07-22T07:11:48.169Z,90.64
2018-07-22T07:12:52.780Z,90.92
2018-07-22T07:13:58.745Z,90.06
2018-07-22T07:15:12.779Z,89.48
2018-07-22T07:16:17.195Z,88.90
2018-07-22T07:17:28.933Z,89.67
2018-07-22T07:18:32.357Z,89.96
2018-07-22T07:19:29.190Z,89.19
2018-07-22T07:20:38.718Z,88.81
2018-07-22T07:21:45.183Z,89.19
2018-07-22T07:22:54.502Z,88.42
2018-07-22T07:23:55.943Z,87.74
2018-07-22T07:25:03.324Z,88.17
2018-07-22T07:26:01.997Z,87.40
2018-07-22T07:27:01.947Z,87.70
2018-07-22T07:28:13.435Z,88.37
2018-07-22T07:29:23.635Z,89.23
2018-07-22T07:30:22.788Z,89.04
2018-07-22T07:31:27.325Z,86.25
2018-07-22T07:32:33.682Z,85.09
2018-07-22T07:34:49.879Z,85.77
2018-07-22T07:37:04.841Z,85.19
2018-07-22T07:38:16.418Z,84.22
2018-07-22T07:39:09.868Z,84.70
2018-07-22T07:40:14.789Z,85.09
2018-07-22T07:41:16.744Z,83.74
2018-07-22T07:42:24.589Z,83.36
2018-07-22T07:43:26.792Z,84.32
2018-07-22T07:44:33.790Z,83.26
2018-07-22T07:45:48.411Z,83.74
2018-07-22T07:46:45.559Z,84.03
2018-07-22T07:47:57.235Z,82.82
2018-07-22T07:50:13.632Z,82.14
2018-07-22T07:54:23.385Z,85.52
2018-07-22T07:55:35.484Z,85.13
2018-07-22T07:56:37.223Z,83.59
2018-07-22T07:58:52.495Z,82.82
2018-07-22T07:59:59.566Z,82.14
2018-07-22T08:02:08.490Z,83.73
2018-07-22T08:03:24.676Z,84.59
2018-07-22T08:04:25.299Z,82.76
2018-07-22T08:05:33.965Z,82.34
2018-07-22T08:06:26.845Z,82.86
2018-07-22T08:07:42.807Z,81.99
2018-07-22T08:09:45.094Z,81.41
2018-07-22T08:10:50.528Z,81.41
2018-07-22T08:14:17.996Z,81.93
2018-07-22T08:16:27.538Z,80.20
2018-07-22T08:17:28.148Z,79.00
2018-07-22T08:18:32.153Z,80.10
2018-07-22T08:19:38.198Z,79.81
2018-07-22T08:20:49.879Z,79.43
2018-07-22T08:21:40.861Z,80.20
2018-07-22T08:22:54.808Z,80.00
2018-07-22T08:24:05.875Z,80.00
2018-07-22T08:26:06.447Z,80.78
2018-07-22T08:27:26.477Z,80.30
2018-07-22T08:28:32.422Z,79.81
2018-07-22T08:29:28.639Z,78.56
2018-07-22T08:30:43.496Z,77.88
2018-07-22T08:31:39.807Z,78.27
2018-07-22T08:32:54.774Z,78.08
2018-07-22T08:33:42.184Z,78.36
2018-07-22T08:34:54.806Z,79.08
2018-07-22T08:35:45.379Z,78.89
2018-07-22T08:37:13.028Z,77.15
2018-07-22T08:38:21.330Z,76.37
2018-07-22T08:40:27.793Z,76.86
2018-07-22T08:41:40.475Z,77.05
2018-07-22T08:42:29.855Z,76.47
2018-07-22T08:43:40.810Z,75.60
2018-07-22T08:44:51.578Z,74.35
2018-07-22T08:45:56.749Z,74.83
2018-07-22T08:47:01.934Z,73.61
2018-07-22T08:48:09.007Z,74.48
2018-07-22T08:49:09.117Z,73.52
2018-07-22T08:51:31.666Z,73.80
2018-07-22T08:52:52.450Z,71.39
2018-07-22T08:53:38.532Z,71.88
2018-07-22T08:54:43.055Z,72.55
2018-07-22T08:55:31.480Z,72.94
2018-07-22T08:57:14.502Z,72.64
2018-07-22T08:58:25.460Z,72.78
2018-07-22T09:00:15.436Z,72.39
2018-07-22T09:01:57.020Z,70.56
2018-07-22T09:02:30.825Z,69.68
2018-07-22T09:04:17.003Z,69.59
2018-07-22T09:05:56.128Z,69.68
2018-07-22T09:07:30.232Z,69.49
2018-07-22T09:08:49.695Z,69.92
2018-07-22T09:11:02.301Z,69.59
2018-07-22T09:12:09.690Z,69.82
2018-07-22T09:13:10.611Z,68.95
2018-07-22T09:13:49.419Z,68.27
2018-07-22T09:14:54.445Z,67.40
2018-07-22T09:16:12.501Z,67.49
2018-07-22T09:17:07.494Z,68.37
2018-07-22T09:19:31.748Z,68.40
2018-07-22T09:20:19.496Z,68.40
2018-07-22T09:21:31.967Z,68.21
2018-07-22T09:22:30.845Z,67.63
2018-07-22T09:23:29.822Z,66.37
2018-07-22T09:24:53.079Z,65.20
2018-07-22T09:25:34.248Z,64.34
2018-07-22T09:26:59.242Z,65.79
2018-07-22T09:27:58.221Z,65.20
2018-07-22T09:28:56.281Z,64.82
2018-07-22T09:30:02.234Z,63.66
2018-07-22T09:31:04.589Z,63.56
2018-07-22T09:32:14.428Z,63.27
2018-07-22T09:34:33.593Z,65.34
2018-07-22T09:35:28.782Z,63.79
2018-07-22T09:36:46.710Z,63.89
2018-07-22T09:37:34.940Z,63.69
2018-07-22T09:38:37.107Z,63.31
2018-07-22T09:39:43.146Z,62.34
2018-07-22T09:41:00.152Z,62.72
2018-07-22T09:42:10.092Z,63.11
2018-07-22T09:43:00.369Z,63.11
2018-07-22T09:44:11.435Z,63.14
2018-07-22T09:45:11.544Z,62.17
2018-07-22T09:46:21.484Z,62.17
2018-07-22T09:47:25.594Z,60.04
2018-07-22T09:49:40.658Z,60.04
2018-07-22T09:50:40.872Z,60.62
2018-07-22T09:51:51.513Z,60.04
2018-07-22T09:53:03.514Z,58.98
2018-07-22T09:54:01.981Z,59.94
2018-07-22T09:55:12.126Z,59.30
2018-07-22T09:56:27.082Z,59.49
2018-07-22T09:57:17.873Z,59.20
2018-07-22T09:58:33.147Z,60.46
2018-07-22T09:59:35.811Z,59.88
2018-07-22T10:00:33.355Z,58.52
2018-07-22T10:01:52.204Z,58.23
2018-07-22T10:02:46.477Z,59.20
2018-07-22T10:03:59.181Z,59.03
2018-07-22T10:04:59.524Z,58.74
2018-07-22T10:06:20.022Z,57.78
2018-07-22T10:07:11.592Z,57.68
2018-07-22T10:08:13.851Z,57.78
2018-07-22T10:09:22.052Z,57.00
2018-07-22T10:11:36.847Z,56.35
2018-07-22T10:12:46.342Z,55.08
2018-07-22T10:14:50.923Z,55.08
2018-07-22T10:15:56.504Z,55.35
2018-07-22T10:17:05.107Z,54.41
2018-07-22T10:18:08.697Z,53.92
2018-07-22T10:19:02.867Z,53.73
2018-07-22T10:20:04.104Z,53.83
2018-07-22T10:21:30.844Z,54.50
2018-07-22T10:24:32.531Z,52.95
2018-07-22T10:26:47.263Z,52.56
2018-07-22T10:27:59.247Z,53.08
2018-07-22T10:29:58.541Z,54.63
2018-07-22T10:31:09.605Z,53.85
2018-07-22T10:32:24.931Z,53.17
2018-07-22T10:33:21.601Z,52.69
2018-07-22T10:34:15.472Z,53.20
2018-07-22T10:37:44.973Z,52.33
2018-07-22T10:38:42.845Z,52.03
2018-07-22T10:39:42.019Z,51.93
2018-07-22T10:42:05.074Z,52.91
2018-07-22T10:43:15.445Z,51.87
2018-07-22T10:44:19.730Z,51.93
2018-07-22T10:46:25.273Z,52.15
2018-07-22T10:47:30.095Z,51.97
2018-07-22T10:48:42.490Z,52.35
2018-07-22T10:50:46.292Z,50.70
2018-07-22T10:52:10.849Z,50.99
2018-07-22T10:53:08.219Z,51.79
2018-07-22T10:54:15.299Z,50.04
2018-07-22T10:55:31.581Z,51.11
2018-07-22T10:56:21.655Z,51.21
2018-07-22T10:59:50.143Z,50.34
2018-07-22T11:01:37.663Z,49.56
2018-07-22T11:03:58.854Z,50.16
2018-07-22T11:05:01.650Z,51.04
2018-07-22T11:06:10.357Z,49.78
2018-07-22T11:07:23.572Z,50.46
2018-07-22T11:08:24.503Z,50.26
2018-07-22T11:09:27.274Z,49.29
2018-07-22T11:10:35.380Z,49.78
2018-07-22T11:11:30.673Z,49.58
2018-07-22T11:12:43.370Z,49.49
2018-07-22T11:13:40.101Z,49.00
2018-07-22T11:14:48.147Z,49.29
2018-07-22T11:15:52.197Z,47.93
2018-07-22T11:17:00.194Z,47.34
2018-07-22T11:19:06.757Z,47.47
2018-07-22T11:21:26.901Z,47.64
2018-07-22T11:22:25.722Z,47.25
2018-07-22T11:23:27.680Z,47.15
2018-07-22T11:24:42.635Z,47.47
2018-07-22T11:26:45.002Z,47.66
2018-07-22T11:27:57.298Z,48.25
2018-07-22T11:29:04.109Z,47.37
2018-07-22T11:31:13.598Z,48.15
2018-07-22T11:32:14.424Z,47.47
2018-07-22T11:33:28.565Z,46.50
2018-07-22T11:34:27.648Z,47.59
2018-07-22T11:35:34.106Z,47.49
2018-07-22T11:36:39.029Z,46.30
2018-07-22T11:38:02.998Z,46.51
2018-07-22T11:39:00.238Z,46.51
2018-07-22T11:40:01.987Z,46.81
2018-07-22T11:41:16.432Z,47.00
2018-07-22T11:42:17.053Z,47.20
2018-07-22T11:43:29.554Z,47.30
2018-07-22T11:44:32.579Z,46.13
2018-07-22T11:45:24.651Z,46.23
2018-07-22T11:46:38.996Z,47.20
2018-07-22T11:47:40.538Z,47.61
2018-07-22T11:48:44.132Z,46.44
2018-07-22T11:49:50.175Z,46.83
2018-07-22T11:50:52.590Z,45.86
2018-07-22T11:52:09.954Z,46.64
2018-07-22T11:53:02.689Z,45.18
2018-07-22T11:54:10.276Z,46.15
2018-07-22T11:55:09.668Z,45.37
2018-07-22T11:56:17.352Z,45.57
2018-07-22T11:58:32.317Z,45.76
2018-07-22T11:59:32.017Z,46.05
2018-07-22T12:00:44.124Z,45.49
2018-07-22T12:02:47.704Z,45.78
2018-07-22T12:04:03.594Z,45.88
2018-07-22T12:05:02.259Z,45.10
2018-07-22T12:06:05.645Z,45.49
2018-07-22T12:07:11.495Z,45.10
2018-07-22T12:09:26.249Z,45.20
2018-07-22T12:10:26.666Z,45.10
2018-07-22T12:11:43.981Z,45.10
2018-07-22T12:12:48.593Z,45.98
2018-07-22T12:14:52.916Z,45.47
2018-07-22T12:16:06.125Z,46.05
2018-07-22T12:16:59.885Z,46.64
2018-07-22T12:18:09.606Z,46.44
2018-07-22T12:19:13.312Z,46.64
2018-07-22T12:21:32.781Z,47.03
2018-07-22T12:23:40.073Z,46.54
2018-07-22T12:24:44.067Z,46.93
2018-07-22T12:25:46.938Z,46.73
2018-07-22T12:26:56.879Z,47.03
2018-07-22T12:28:00.218Z,46.05
2018-07-22T12:30:08.677Z,46.61
2018-07-22T12:31:15.646Z,46.51
2018-07-22T12:32:22.725Z,46.91
2018-07-22T12:33:33.478Z,47.32
2018-07-22T12:34:38.296Z,46.93
2018-07-22T12:36:45.273Z,47.13
2018-07-22T12:37:46.202Z,46.44
2018-07-22T12:38:57.788Z,46.76
2018-07-22T12:40:05.878Z,46.66
2018-07-22T12:41:05.269Z,46.95
2018-07-22T12:42:18.289Z,46.76
2018-07-22T12:43:13.988Z,45.29
2018-07-22T12:44:21.366Z,45.68
2018-07-22T12:45:30.590Z,46.56
2018-07-22T12:46:35.862Z,46.08
2018-07-22T12:47:41.775Z,46.08
2018-07-22T12:48:45.561Z,46.56
2018-07-22T12:50:54.589Z,46.66
2018-07-22T12:55:14.375Z,46.97
2018-07-22T12:57:26.622Z,46.10
2018-07-22T12:58:35.597Z,47.49
2018-07-22T13:00:38.780Z,46.49
2018-07-22T13:01:47.891Z,46.49
2018-07-22T13:03:57.891Z,46.70
2018-07-22T13:05:05.227Z,47.09
2018-07-22T13:06:12.300Z,46.90
2018-07-22T13:07:19.679Z,46.70
2018-07-22T13:08:26.343Z,46.70
2018-07-22T13:09:23.998Z,46.61
2018-07-22T13:10:34.856Z,46.51
2018-07-22T13:11:36.807Z,46.30
2018-07-22T13:12:54.325Z,46.49
2018-07-22T13:13:52.387Z,44.44
2018-07-22T13:14:59.153Z,45.03
2018-07-22T13:15:59.261Z,44.64
2018-07-22T13:17:06.333Z,45.92
2018-07-22T13:18:12.075Z,46.10
2018-07-22T13:19:25.525Z,46.10
2018-07-22T13:20:32.366Z,45.81
2018-07-22T13:21:34.215Z,45.90
2018-07-22T13:22:34.639Z,46.10
2018-07-22T13:25:50.627Z,45.42
2018-07-22T13:27:04.158Z,45.32
2018-07-22T13:31:21.891Z,45.12
2018-07-22T13:33:36.450Z,44.83
2018-07-22T13:34:34.718Z,45.03
2018-07-22T13:35:39.840Z,44.24
2018-07-22T13:36:53.981Z,45.03
2018-07-22T13:37:53.575Z,44.54
2018-07-22T13:39:04.130Z,45.10
2018-07-22T13:40:10.806Z,44.42
2018-07-22T13:41:15.303Z,44.90
2018-07-22T13:42:12.756Z,45.10
2018-07-22T13:43:24.741Z,46.08
2018-07-22T13:44:32.226Z,46.17
2018-07-22T13:45:29.788Z,45.20
2018-07-22T13:46:43.806Z,44.90
2018-07-22T13:47:54.873Z,46.08
2018-07-22T13:48:47.719Z,46.66
2018-07-22T13:49:53.453Z,45.88
2018-07-22T13:51:13.940Z,45.78
2018-07-22T13:52:04.217Z,45.39
2018-07-22T13:53:08.729Z,45.68
2018-07-22T13:54:13.651Z,44.98
2018-07-22T13:55:25.434Z,44.23
2018-07-22T13:58:46.755Z,44.20
2018-07-22T14:00:46.059Z,45.29
2018-07-22T14:01:54.865Z,44.42
2018-07-22T14:02:59.581Z,44.42
2018-07-22T14:04:08.497Z,44.32
2018-07-22T14:06:21.168Z,44.44
2018-07-22T14:07:30.644Z,44.32
2018-07-22T14:08:26.447Z,44.52
2018-07-22T14:09:33.531Z,44.42
2018-07-22T14:10:41.722Z,45.00
2018-07-22T14:11:47.463Z,45.10
2018-07-22T14:14:01.501Z,44.71
2018-07-22T14:15:03.568Z,45.29
2018-07-22T14:17:08.075Z,44.81
2018-07-22T14:18:15.249Z,45.20
2018-07-22T14:19:26.622Z,45.20
2018-07-22T14:20:28.575Z,44.62
2018-07-22T14:21:38.960Z,44.62
2018-07-22T14:22:40.261Z,44.81
2018-07-22T14:23:43.647Z,45.39
2018-07-22T14:24:51.132Z,45.88
2018-07-22T14:25:51.855Z,45.59
2018-07-22T14:27:00.975Z,45.29
2018-07-22T14:28:06.956Z,45.39
2018-07-22T14:29:11.745Z,44.42
2018-07-22T14:30:23.424Z,45.39
2018-07-22T14:32:33.981Z,45.98
2018-07-22T14:33:36.755Z,45.78
2018-07-22T14:35:52.949Z,45.39
2018-07-22T14:36:53.566Z,46.08
2018-07-22T14:38:57.266Z,46.76
2018-07-22T14:40:19.399Z,46.08
2018-07-22T14:41:10.702Z,46.08
2018-07-22T14:42:16.950Z,45.88
2018-07-22T14:43:25.556Z,45.78
2018-07-22T14:44:31.204Z,46.37
2018-07-22T14:46:45.161Z,46.17
2018-07-22T14:47:50.159Z,47.13
2018-07-22T14:48:49.149Z,48.00
2018-07-22T14:52:16.325Z,48.95
2018-07-22T14:53:15.492Z,49.54
2018-07-22T14:54:19.283Z,50.29
2018-07-22T14:55:29.685Z,50.68
2018-07-22T14:56:39.479Z,50.87
2018-07-22T14:57:33.335Z,51.17
2018-07-22T14:58:43.578Z,51.33
2018-07-22T14:59:46.145Z,52.01
2018-07-22T15:00:58.545Z,51.92
2018-07-22T15:01:57.322Z,52.21
2018-07-22T15:03:07.158Z,52.59
2018-07-22T15:05:11.883Z,52.40
2018-07-22T15:07:21.111Z,52.47
2018-07-22T15:08:34.944Z,53.25
2018-07-22T15:09:39.372Z,53.25
2018-07-22T15:10:41.202Z,53.35
2018-07-22T15:11:46.739Z,53.64
2018-07-22T15:12:52.687Z,54.22
2018-07-22T15:14:02.452Z,53.64
2018-07-22T15:14:52.906Z,53.54
2018-07-22T15:16:09.094Z,53.45
2018-07-22T15:18:20.268Z,54.32
2018-07-22T15:20:36.457Z,54.13
2018-07-22T15:21:40.270Z,54.13
2018-07-22T15:22:45.620Z,54.32
2018-07-22T15:26:07.832Z,54.13
2018-07-22T15:27:08.858Z,53.83
2018-07-22T15:28:04.975Z,54.71
2018-07-22T15:30:21.072Z,54.13
2018-07-22T15:31:30.184Z,54.22
2018-07-22T15:32:34.939Z,53.38
2018-07-22T15:33:41.359Z,52.96
2018-07-22T15:34:57.957Z,53.67
2018-07-22T15:35:50.386Z,53.08
2018-07-22T15:36:55.512Z,54.15
2018-07-22T15:38:01.970Z,53.77
2018-07-22T15:39:03.001Z,53.28
2018-07-22T15:40:13.723Z,53.38
2018-07-22T15:41:21.959Z,54.35
2018-07-22T15:45:30.488Z,53.28
2018-07-22T15:46:56.808Z,52.98
2018-07-22T15:47:51.901Z,53.38
2018-07-22T15:48:49.961Z,52.98
2018-07-22T15:50:07.171Z,51.99
2018-07-22T15:51:04.106Z,52.28
2018-07-22T15:52:17.427Z,52.28
2018-07-22T15:53:15.282Z,52.76
2018-07-22T15:57:37.734Z,53.45
2018-07-22T15:58:47.165Z,53.54
2018-07-22T15:59:49.730Z,53.93
2018-07-22T16:00:56.802Z,54.13
2018-07-22T16:02:02.263Z,53.06
2018-07-22T16:03:04.499Z,53.25
2018-07-22T16:04:10.346Z,53.35
2018-07-22T16:05:22.439Z,53.54
2018-07-22T16:06:23.358Z,54.32
2018-07-22T16:07:29.006Z,54.22
2018-07-22T16:08:40.986Z,52.45
2018-07-22T16:09:36.596Z,52.74
2018-07-22T16:10:46.835Z,53.13
2018-07-22T16:11:57.081Z,53.52
2018-07-22T16:12:58.245Z,52.35
2018-07-22T16:13:52.086Z,52.84
2018-07-22T16:16:11.959Z,53.42
2018-07-22T16:18:22.518Z,53.61
2018-07-22T16:19:38.704Z,53.32
2018-07-22T16:21:36.975Z,53.81
2018-07-22T16:22:45.483Z,53.52
2018-07-22T16:23:49.584Z,53.52
2018-07-22T16:25:03.009Z,53.03
2018-07-22T16:26:04.140Z,53.42
2018-07-22T16:27:00.357Z,53.42
2018-07-22T16:28:11.730Z,53.32
2018-07-22T16:29:11.634Z,53.32
2018-07-22T16:30:30.278Z,53.03
2018-07-22T16:31:43.400Z,53.32
2018-07-22T16:33:48.217Z,53.42
2018-07-22T16:34:44.141Z,53.32
2018-07-22T16:35:51.820Z,53.61
2018-07-22T16:36:56.125Z,53.52
2018-07-22T16:38:00.327Z,53.13
2018-07-22T16:39:09.044Z,53.52
2018-07-22T16:40:18.063Z,53.32
2018-07-22T16:42:27.601Z,53.32
2018-07-22T16:43:31.903Z,54.29
2018-07-22T16:44:40.726Z,54.20